Time;durP1;ratioP1;P1;durP2;ratioP2;P2;SDS_P1;SDS_P2;PMS_P1;PMS_P2;Temp;Humidity;BMP_temperature;BMP_pressure;BME280_temperature;BME280_humidity;BME280_pressure;Samples;Min_cycle;Max_cycle;Signal;HPM_P1;HPM_P2
2023/10/10 00:04:43;;;;;;;;;;;;;;;20.63;27.72;100789.60;109249;1264;74023;-91
2023/10/10 00:07:09;;;;;;;;;;;;;;;20.63;27.75;100786.64;109250;1264;82898;-88
2023/10/10 00:09:35;;;;;;;;;;;;;;;20.63;27.79;100784.23;109266;1264;67213;-88
2023/10/10 00:12:01;;;;;;;;;;;;;;;20.63;27.79;100785.36;109224;1264;67504;-88
2023/10/10 00:14:29;;;;;;;;;;;;;;;20.62;27.69;100783.77;109295;1265;67596;-87
2023/10/10 00:16:55;;;;;;;;;;;;;;;20.62;27.83;100783.15;109268;1264;67588;-88
2023/10/10 00:19:29;;;;;;;;;;;;;;;20.62;27.72;100786.52;109248;1264;67702;-88
2023/10/10 00:21:57;;;;;;;;;;;;;;;20.62;27.82;100783.09;108621;1262;552963;-86
2023/10/10 00:24:30;;;;;;;;;;;;;;;20.61;27.79;100787.55;109458;1263;67513;-89
2023/10/10 00:26:58;;;;;;;;;;;;;;;20.61;27.87;100793.27;109474;1263;67529;-89
2023/10/10 00:29:26;;;;;;;;;;;;;;;20.61;27.85;100795.46;109463;1263;75300;-89
2023/10/10 00:31:55;;;;;;;;;;;;;;;20.61;27.85;100800.82;109474;1263;81918;-89
2023/10/10 00:37:13;;;;;;;;;;;;;;;20.60;27.90;100793.25;109341;1264;67572;-88
2023/10/10 00:39:38;;;;;;;;;;;;;;;20.59;27.99;100789.27;109174;1264;67462;-89
2023/10/10 01:06:54;;;;;;;;;;;;;;;20.56;28.37;100765.84;108565;1263;552176;-88
2023/10/10 01:17:44;;;;;;;;;;;;;;;20.54;28.20;100760.55;108980;1263;552239;-91
2023/10/10 01:53:17;;;;;;;;;;;;;;;20.51;28.75;100779.66;108597;1263;557279;-90
2023/10/10 02:55:11;;;;;;;;;;;;;;;20.43;29.44;100802.09;108608;1262;557871;-91
2023/10/10 03:03:18;;;;;;;;;;;;;;;20.43;29.50;100795.85;109020;1262;551246;-90
2023/10/10 03:05:54;;;;;;;;;;;;;;;20.43;29.65;100792.73;109499;1261;67641;-88
2023/10/10 03:08:51;;;;;;;;;;;;;;;20.42;29.61;100784.30;109511;1262;67765;-88
2023/10/10 03:11:34;;;;;;;;;;;;;;;20.42;29.51;100776.94;109390;1262;74980;-88
2023/10/10 03:14:07;;;;;;;;;;;;;;;20.42;29.67;100778.88;109548;1262;83108;-88
2023/10/10 03:16:45;;;;;;;;;;;;;;;20.42;29.69;100784.49;109309;1262;72202;-86
2023/10/10 03:29:36;;;;;;;;;;;;;;;20.37;31.18;100795.44;109386;1262;67642;-86
2023/10/10 03:34:56;;;;;;;;;;;;;;;20.41;31.22;100807.96;109425;1262;67469;-85
2023/10/10 03:37:30;;;;;;;;;;;;;;;20.42;31.27;100813.95;109235;1263;76074;-86
2023/10/10 03:40:20;;;;;;;;;;;;;;;20.44;31.44;100817.38;109252;1262;82920;-86
2023/10/10 06:10:38;;;;;;;;;;;;;;;20.40;30.95;100951.10;86975;1299;556063;-90
2023/10/10 06:54:03;;;;;;;;;;;;;;;20.66;30.99;101000.27;83377;1325;72070;-90
2023/10/10 06:59:25;;;;;;;;;;;;;;;20.72;30.91;101001.56;105348;1300;72421;-89
2023/10/10 07:01:50;;;;;;;;;;;;;;;20.74;30.89;101000.55;105275;1300;68019;-87
2023/10/10 07:04:16;;;;;;;;;;;;;;;20.77;31.08;100996.61;105364;1301;68546;-87
2023/10/10 07:06:47;;;;;;;;;;;;;;;20.79;30.97;100995.98;105152;1300;67890;-88
2023/10/10 07:12:16;;;;;;;;;;;;;;;20.80;30.91;100997.58;105329;1307;72386;-90
2023/10/10 07:14:44;;;;;;;;;;;;;;;20.80;30.90;100995.33;105309;1302;67650;-90
2023/10/10 07:17:12;;;;;;;;;;;;;;;20.79;30.93;100999.09;104998;1303;68537;-92
2023/10/10 07:20:29;;;;;;;;;;;;;;;20.78;30.81;101002.35;105117;1303;71805;-87
2023/10/10 07:22:24;;;;;;;;;;;;;;;20.76;30.77;100999.88;105376;1303;82267;-91
2023/10/10 07:30:34;;;;;;;;;;;;;;;20.72;30.82;100987.14;85570;1302;552416;-90
2023/10/10 07:33:40;;;;;;;;;;;;;;;20.71;30.59;100994.75;105575;1300;73196;-89
2023/10/10 07:43:27;;;;;;;;;;;;;;;20.68;30.55;101019.73;105400;1299;67785;-90
2023/10/10 07:49:20;;;;;;;;;;;;;;;20.68;30.44;101028.53;93606;1302;552322;-89
2023/10/10 09:00:28;;;;;;;;;;;;;;;20.77;30.27;101063.52;103922;1296;71206;-90
2023/10/10 09:10:14;;;;;;;;;;;;;;;20.79;30.28;101069.88;102873;1296;552622;-88
2023/10/10 09:12:58;;;;;;;;;;;;;;;20.79;30.20;101070.49;105540;1303;84182;-90
2023/10/10 09:15:24;;;;;;;;;;;;;;;20.79;30.23;101069.23;105344;1303;72288;-87
2023/10/10 09:17:55;;;;;;;;;;;;;;;20.79;30.27;101069.68;105368;1299;68973;-88
2023/10/10 09:20:28;;;;;;;;;;;;;;;20.79;30.26;101075.16;105394;1297;68323;-87
2023/10/10 09:22:56;;;;;;;;;;;;;;;20.80;30.34;101071.79;105368;1300;73768;-88
2023/10/10 09:25:26;;;;;;;;;;;;;;;20.80;30.24;101074.85;105198;1300;83492;-88
2023/10/10 09:28:04;;;;;;;;;;;;;;;20.81;30.19;101078.25;105211;1300;72364;-87
2023/10/10 09:30:34;;;;;;;;;;;;;;;20.81;30.30;101082.02;105131;1300;67480;-86
2023/10/10 09:33:13;;;;;;;;;;;;;;;20.81;30.44;101082.19;105212;1303;67708;-85
2023/10/10 09:35:45;;;;;;;;;;;;;;;20.83;30.32;101081.92;105203;1300;72773;-86
2023/10/10 09:38:14;;;;;;;;;;;;;;;20.84;30.31;101085.48;105274;1303;82055;-86
2023/10/10 09:44:27;;;;;;;;;;;;;;;20.85;30.52;101076.08;104898;1300;67690;-90
2023/10/10 09:49:44;;;;;;;;;;;;;;;20.85;30.39;101074.14;105154;1300;72958;-91
2023/10/10 10:10:33;;;;;;;;;;;;;;;20.94;30.41;101064.20;105457;1298;70597;-90
2023/10/10 10:13:37;;;;;;;;;;;;;;;20.95;30.40;101065.89;105742;1301;67783;-89
2023/10/10 10:16:25;;;;;;;;;;;;;;;20.96;30.25;101066.36;105728;1297;67809;-89
2023/10/10 10:22:21;;;;;;;;;;;;;;;20.96;30.35;101060.67;105634;1302;81553;-89
2023/10/10 10:28:00;;;;;;;;;;;;;;;20.97;30.31;101063.30;105771;1298;67086;-90
2023/10/10 10:30:55;;;;;;;;;;;;;;;20.97;30.37;101057.27;105773;1300;68389;-89
2023/10/10 10:36:28;;;;;;;;;;;;;;;20.91;30.27;101057.66;105761;1297;81493;-89
2023/10/10 10:42:22;;;;;;;;;;;;;;;20.88;30.32;101049.92;105578;1303;67837;31
2023/10/10 10:48:41;;;;;;;;;;;;;;;;;;;;;
2023/10/10 10:57:28;;;;;;;;;;;;;;;20.93;30.37;101048.75;105334;1297;557161;-89
2023/10/10 11:11:36;;;;;;;;;;;;;;;20.99;30.42;101052.37;105256;1298;552106;-90
2023/10/10 11:23:32;;;;;;;;;;;;;;;21.00;30.43;101051.92;83027;1328;71243;-92
2023/10/10 11:30:11;;;;;;;;;;;;;;;21.00;30.43;101052.17;105245;1299;557122;-92
2023/10/10 11:45:50;;;;;;;;;;;;;;;21.02;30.21;101052.40;105355;1300;551879;-90
2023/10/10 11:51:14;;;;;;;;;;;;;;;21.01;30.29;101054.03;105511;1299;82296;-88
2023/10/10 11:56:53;;;;;;;;;;;;;;;21.02;30.42;101051.58;105626;1297;67525;-88
2023/10/10 12:02:46;;;;;;;;;;;;;;;21.03;30.34;101047.75;105677;1298;72372;-88
2023/10/10 12:08:23;;;;;;;;;;;;;;;21.04;30.19;101045.98;105804;1294;72801;-91
2023/10/10 12:16:42;;;;;;;;;;;;;;;21.07;30.37;101040.06;105606;1297;72415;-90
2023/10/10 13:00:50;;;;;;;;;;;;;;;21.17;30.29;101043.48;105252;1299;553634;-89
2023/10/10 13:10:10;;;;;;;;;;;;;;;21.18;30.19;101044.97;97268;1296;555808;-90
2023/10/10 13:19:20;;;;;;;;;;;;;;;21.19;30.24;101037.14;95519;1294;552952;-91
2023/10/10 13:22:20;;;;;;;;;;;;;;;21.19;30.14;101037.75;105746;1293;72548;31
2023/10/10 13:24:56;;;;;;;;;;;;;;;21.20;30.16;101035.04;105542;1298;67357;-90
2023/10/10 13:36:37;;;;;;;;;;;;;;;21.21;30.26;101042.02;105523;1293;73194;-89
2023/10/10 13:42:20;;;;;;;;;;;;;;;21.19;30.17;101037.71;105259;1297;552025;-92
2023/10/10 13:45:18;;;;;;;;;;;;;;;21.16;30.10;101038.50;104750;1300;557147;-88
2023/10/10 13:48:23;;;;;;;;;;;;;;;21.14;30.19;101037.21;105567;1299;81987;-89
2023/10/10 13:53:56;;;;;;;;;;;;;;;21.12;30.17;101045.23;105517;1300;67754;-89
2023/10/10 14:08:17;;;;;;;;;;;;;;;21.06;30.17;101057.49;95820;1294;552381;-89
2023/10/10 14:11:01;;;;;;;;;;;;;;;21.06;30.13;101059.39;105471;1297;67997;-88
2023/10/10 14:16:34;;;;;;;;;;;;;;;21.03;30.24;101066.33;105155;1294;558073;-92
2023/10/10 14:22:22;;;;;;;;;;;;;;;21.01;30.16;101070.14;105191;1294;558432;-91
2023/10/10 14:28:02;;;;;;;;;;;;;;;21.00;30.07;101067.52;105028;1296;558132;-91
2023/10/10 14:46:11;;;;;;;;;;;;;;;20.98;30.16;101086.08;105038;1299;555718;-88
2023/10/10 14:52:49;;;;;;;;;;;;;;;20.97;30.19;101096.50;83976;1293;556299;-90
2023/10/10 14:59:04;;;;;;;;;;;;;;;20.89;30.14;101109.73;105500;1296;72791;-88
2023/10/10 15:01:36;;;;;;;;;;;;;;;20.86;29.89;101115.98;105308;1297;69133;-90
2023/10/10 15:04:29;;;;;;;;;;;;;;;20.84;30.08;101118.26;105359;1290;555284;-91
2023/10/10 15:07:13;;;;;;;;;;;;;;;20.85;30.22;101126.26;105466;1289;68348;-90
2023/10/10 15:09:39;;;;;;;;;;;;;;;20.86;30.32;101134.55;105443;1291;69277;-90
2023/10/10 15:12:07;;;;;;;;;;;;;;;20.86;30.35;101135.83;105376;1296;68417;-90
2023/10/10 15:14:33;;;;;;;;;;;;;;;20.86;30.44;101143.11;105752;1300;83003;-90
2023/10/10 15:17:00;;;;;;;;;;;;;;;20.88;30.22;101145.63;105486;1296;68199;-89
2023/10/10 15:19:27;;;;;;;;;;;;;;;20.87;30.32;101151.80;105435;1296;69026;-89
2023/10/10 15:21:55;;;;;;;;;;;;;;;20.90;30.47;101155.98;105404;1290;67185;-89
2023/10/10 15:24:35;;;;;;;;;;;;;;;20.90;30.26;101157.41;105443;1297;73515;-90
2023/10/10 15:27:07;;;;;;;;;;;;;;;20.90;30.18;101162.33;105190;1297;552305;-89
2023/10/10 15:29:39;;;;;;;;;;;;;;;20.90;30.26;101163.60;105636;1296;67776;-90
2023/10/10 15:32:07;;;;;;;;;;;;;;;20.90;30.33;101167.73;104991;1292;552732;-90
2023/10/10 15:34:34;;;;;;;;;;;;;;;20.90;30.29;101169.70;104812;1297;552635;-89
2023/10/10 15:37:26;;;;;;;;;;;;;;;20.90;30.26;101177.16;105102;1297;557026;-91
2023/10/10 15:39:57;;;;;;;;;;;;;;;20.90;30.28;101180.23;105635;1296;82091;-91
2023/10/10 15:42:25;;;;;;;;;;;;;;;20.90;30.37;101184.67;105528;1297;72486;-93
2023/10/10 15:44:51;;;;;;;;;;;;;;;20.90;30.18;101191.27;105468;1297;67867;-88
2023/10/10 15:47:18;;;;;;;;;;;;;;;20.89;30.42;101197.23;105478;1297;67735;-87
2023/10/10 15:49:44;;;;;;;;;;;;;;;20.87;30.14;101206.59;105409;1297;67757;-86
2023/10/10 15:52:09;;;;;;;;;;;;;;;20.86;30.15;101208.62;105412;1297;67968;-87
2023/10/10 15:54:35;;;;;;;;;;;;;;;20.85;30.29;101214.24;105342;1295;67808;-87
2023/10/10 15:57:05;;;;;;;;;;;;;;;20.85;30.21;101218.36;105243;1298;68124;-87
2023/10/10 15:59:31;;;;;;;;;;;;;;;20.84;30.12;101221.70;105327;1299;68054;-87
2023/10/10 16:01:56;;;;;;;;;;;;;;;20.84;30.27;101225.38;105407;1297;67847;-87
2023/10/10 16:04:23;;;;;;;;;;;;;;;20.84;30.07;101226.75;105412;1296;68402;-86
2023/10/10 16:06:50;;;;;;;;;;;;;;;20.84;30.26;101229.98;105409;1297;68993;-87
2023/10/10 16:09:30;;;;;;;;;;;;;;;20.84;30.00;101233.45;105284;1299;68180;-92
2023/10/10 16:11:57;;;;;;;;;;;;;;;20.84;30.02;101243.73;105371;1296;67840;-87
2023/10/10 16:14:23;;;;;;;;;;;;;;;20.84;30.10;101248.79;105375;1297;67833;-87
2023/10/10 16:16:48;;;;;;;;;;;;;;;20.84;30.01;101252.98;105283;1301;67950;-87
2023/10/10 16:19:15;;;;;;;;;;;;;;;20.84;30.08;101256.36;105698;1297;67767;-87
2023/10/10 16:21:42;;;;;;;;;;;;;;;20.84;30.04;101257.95;105755;1303;68669;-86
2023/10/10 16:24:14;;;;;;;;;;;;;;;20.84;29.91;101261.27;105533;1297;68078;-90
2023/10/10 16:26:45;;;;;;;;;;;;;;;20.84;30.05;101265.83;105409;1297;74267;-86
2023/10/10 16:29:19;;;;;;;;;;;;;;;20.84;29.97;101269.71;105322;1303;84017;-87
2023/10/10 16:31:45;;;;;;;;;;;;;;;20.84;29.94;101278.46;105326;1300;72270;-86
2023/10/10 16:34:11;;;;;;;;;;;;;;;20.84;30.15;101278.55;105318;1298;68441;-86
2023/10/10 16:36:36;;;;;;;;;;;;;;;20.83;30.09;101280.50;105391;1296;67908;-87
2023/10/10 16:41:42;;;;;;;;;;;;;;;20.83;30.01;101280.50;105268;1300;83134;-86
2023/10/10 16:44:13;;;;;;;;;;;;;;;20.83;29.98;101289.25;105204;1299;68426;-86
2023/10/10 16:46:38;;;;;;;;;;;;;;;20.83;29.90;101290.93;105617;1303;67174;-86
2023/10/10 16:49:05;;;;;;;;;;;;;;;20.83;29.97;101292.71;105645;1300;68251;-86
2023/10/10 16:51:31;;;;;;;;;;;;;;;20.83;29.99;101292.31;105686;1300;67203;-87
2023/10/10 16:56:31;;;;;;;;;;;;;;;20.83;29.85;101299.39;105596;1297;71119;-87
2023/10/10 16:58:56;;;;;;;;;;;;;;;20.83;29.88;101307.91;105449;1297;69183;-86
2023/10/10 17:01:22;;;;;;;;;;;;;;;20.83;29.90;101311.86;105690;1297;67984;-87
2023/10/10 17:03:54;;;;;;;;;;;;;;;20.83;29.96;101318.20;105868;1297;67243;-87
2023/10/10 17:06:22;;;;;;;;;;;;;;;20.83;29.91;101323.10;105720;1297;83072;-87
2023/10/10 17:08:48;;;;;;;;;;;;;;;20.83;30.01;101316.05;105795;1297;72553;-87
2023/10/10 17:11:16;;;;;;;;;;;;;;;20.83;29.81;101324.58;105890;1297;67186;-87
2023/10/10 17:13:42;;;;;;;;;;;;;;;20.83;29.84;101324.84;105881;1297;67784;-87
2023/10/10 17:16:11;;;;;;;;;;;;;;;20.83;29.61;101329.90;105884;1296;67301;-87
2023/10/10 17:18:41;;;;;;;;;;;;;;;20.82;29.76;101326.64;105685;1297;82764;-87
2023/10/10 17:21:12;;;;;;;;;;;;;;;20.82;29.88;101333.23;105819;1298;72315;-88
2023/10/10 17:23:38;;;;;;;;;;;;;;;20.82;29.91;101341.52;105804;1297;67941;-87
2023/10/10 17:26:04;;;;;;;;;;;;;;;20.82;29.86;101346.15;105805;1303;67630;-87
2023/10/10 17:28:30;;;;;;;;;;;;;;;20.82;29.76;101349.80;105820;1297;68658;-87
2023/10/10 17:30:56;;;;;;;;;;;;;;;20.82;29.71;101345.55;105545;1298;68394;-87
2023/10/10 17:33:22;;;;;;;;;;;;;;;20.81;29.79;101344.52;105382;1300;68093;-87
2023/10/10 17:36:03;;;;;;;;;;;;;;;20.81;29.69;101350.95;105291;1297;68059;-87
2023/10/10 17:38:28;;;;;;;;;;;;;;;20.81;29.61;101353.61;105210;1299;74281;-86
2023/10/10 17:41:03;;;;;;;;;;;;;;;20.81;29.64;101355.97;105391;1298;67771;-86
2023/10/10 17:43:29;;;;;;;;;;;;;;;20.80;29.65;101352.94;105434;1300;73685;-87
2023/10/10 17:45:55;;;;;;;;;;;;;;;20.80;29.56;101352.23;105316;1300;67677;-87
2023/10/10 17:48:20;;;;;;;;;;;;;;;20.80;29.59;101354.16;105322;1299;68610;-87
2023/10/10 17:54:02;;;;;;;;;;;;;;;20.80;29.44;101357.48;102740;1300;559839;-91
2023/10/10 17:56:27;;;;;;;;;;;;;;;20.79;29.68;101359.84;105410;1299;72529;-87
2023/10/10 17:58:53;;;;;;;;;;;;;;;20.79;29.40;101356.39;105349;1303;67808;-86
2023/10/10 18:01:22;;;;;;;;;;;;;;;20.79;29.55;101362.23;105322;1299;68091;-87
2023/10/10 18:03:52;;;;;;;;;;;;;;;20.79;29.52;101363.05;105433;1299;73715;-86
2023/10/10 18:06:22;;;;;;;;;;;;;;;20.78;29.38;101364.81;105489;1299;83126;-87
2023/10/10 18:08:55;;;;;;;;;;;;;;;20.77;29.37;101362.19;105481;1299;72856;-91
2023/10/10 18:11:21;;;;;;;;;;;;;;;20.76;29.40;101361.55;105544;1298;68462;-86
2023/10/10 18:13:47;;;;;;;;;;;;;;;20.75;29.53;101364.85;105574;1300;67488;-86
2023/10/10 18:16:13;;;;;;;;;;;;;;;20.74;29.45;101369.79;105467;1299;68002;-86
2023/10/10 18:18:41;;;;;;;;;;;;;;;20.75;29.20;101370.98;105519;1299;68542;-86
2023/10/10 18:21:07;;;;;;;;;;;;;;;20.74;29.23;101370.77;105496;1299;67924;-86
2023/10/10 18:23:34;;;;;;;;;;;;;;;20.74;29.33;101367.23;105460;1299;67877;-86
2023/10/10 18:26:00;;;;;;;;;;;;;;;20.75;29.24;101371.95;105432;1299;69105;-86
2023/10/10 18:28:29;;;;;;;;;;;;;;;20.75;29.30;101371.48;105468;1298;67944;-87
2023/10/10 18:30:54;;;;;;;;;;;;;;;20.74;29.15;101373.69;105459;1298;84330;-87
2023/10/10 18:33:21;;;;;;;;;;;;;;;20.73;29.13;101379.24;105485;1299;67246;-87
2023/10/10 18:35:49;;;;;;;;;;;;;;;20.73;29.13;101376.43;105428;1299;67884;-92
2023/10/10 18:38:14;;;;;;;;;;;;;;;20.74;29.30;101379.46;105491;1300;67803;-86
2023/10/10 18:40:40;;;;;;;;;;;;;;;20.73;29.16;101384.56;105457;1297;67780;-87
2023/10/10 18:43:09;;;;;;;;;;;;;;;20.73;29.19;101388.40;105508;1299;67980;-87
2023/10/10 18:45:37;;;;;;;;;;;;;;;20.74;29.22;101389.84;105390;1300;72595;-87
2023/10/10 18:48:03;;;;;;;;;;;;;;;20.73;29.16;101389.22;105438;1299;67740;-87
2023/10/10 18:50:29;;;;;;;;;;;;;;;20.73;28.96;101391.77;105397;1300;67985;-87
2023/10/10 18:52:56;;;;;;;;;;;;;;;20.73;29.01;101396.67;105492;1300;68435;-86
2023/10/10 18:55:25;;;;;;;;;;;;;;;20.74;29.02;101400.21;105453;1299;67108;-87
2023/10/10 18:58:00;;;;;;;;;;;;;;;20.74;29.20;101405.99;105455;1300;72519;-87
2023/10/10 19:00:29;;;;;;;;;;;;;;;20.73;29.10;101403.69;105477;1299;67870;-87
2023/10/10 19:02:56;;;;;;;;;;;;;;;20.73;28.91;101404.25;105459;1300;67880;-87
2023/10/10 19:05:26;;;;;;;;;;;;;;;20.73;28.93;101409.88;105399;1300;75724;-87
2023/10/10 19:07:51;;;;;;;;;;;;;;;20.73;28.83;101411.51;105454;1300;82219;-86
2023/10/10 19:10:16;;;;;;;;;;;;;;;20.73;28.98;101413.86;105404;1299;68148;-87
2023/10/10 19:12:43;;;;;;;;;;;;;;;20.72;28.82;101412.01;105503;1299;67883;-87
2023/10/10 19:15:12;;;;;;;;;;;;;;;20.72;28.89;101414.86;105454;1299;68165;-87
2023/10/10 19:17:42;;;;;;;;;;;;;;;20.72;28.90;101419.42;105774;1299;73550;-92
2023/10/10 19:20:23;;;;;;;;;;;;;;;20.72;28.83;101420.96;105863;1299;83084;-87
2023/10/10 19:22:49;;;;;;;;;;;;;;;20.72;28.77;101425.71;105817;1304;72559;-87
2023/10/10 19:25:16;;;;;;;;;;;;;;;20.72;28.81;101427.80;105447;1300;67820;-86
2023/10/10 19:27:53;;;;;;;;;;;;;;;20.72;28.86;101429.80;105407;1301;67171;-87
2023/10/10 19:30:19;;;;;;;;;;;;;;;20.71;28.79;101431.27;105435;1299;72630;-87
2023/10/10 19:32:46;;;;;;;;;;;;;;;20.71;28.71;101432.74;105382;1299;67984;-88
2023/10/10 19:35:19;;;;;;;;;;;;;;;20.71;28.66;101431.06;105801;1299;67152;-87
2023/10/10 19:37:45;;;;;;;;;;;;;;;20.70;28.71;101436.79;105831;1300;67056;-87
2023/10/10 19:40:11;;;;;;;;;;;;;;;20.71;28.60;101443.70;105839;1299;67042;-87
2023/10/10 19:42:40;;;;;;;;;;;;;;;20.70;28.75;101444.77;105861;1299;68394;-87
2023/10/10 19:45:11;;;;;;;;;;;;;;;20.70;28.84;101448.86;105870;1300;82934;-87
2023/10/10 19:47:45;;;;;;;;;;;;;;;20.70;28.57;101448.96;105507;1299;72492;-87
2023/10/10 19:50:11;;;;;;;;;;;;;;;20.70;28.57;101451.72;105366;1300;68091;-87
2023/10/10 19:52:37;;;;;;;;;;;;;;;20.69;28.63;101453.48;105516;1299;68014;-87
2023/10/10 19:55:03;;;;;;;;;;;;;;;20.69;28.63;101457.13;105420;1300;68133;-86
2023/10/10 19:57:29;;;;;;;;;;;;;;;20.69;28.50;101463.10;105377;1300;67530;-87
2023/10/10 19:59:54;;;;;;;;;;;;;;;20.69;28.45;101465.10;105463;1299;68476;-87
2023/10/10 20:02:20;;;;;;;;;;;;;;;20.68;28.41;101465.77;105500;1299;67642;-87
2023/10/10 20:04:45;;;;;;;;;;;;;;;20.69;28.44;101469.85;105477;1299;67782;-87
2023/10/10 20:07:11;;;;;;;;;;;;;;;20.68;28.56;101468.61;105394;1300;68232;-87
2023/10/10 20:09:36;;;;;;;;;;;;;;;20.68;28.38;101475.21;105404;1299;67504;-87
2023/10/10 20:12:05;;;;;;;;;;;;;;;20.68;28.45;101478.33;105400;1300;67853;-87
2023/10/10 20:14:30;;;;;;;;;;;;;;;20.68;28.41;101482.27;105378;1300;68316;-88
2023/10/10 20:16:56;;;;;;;;;;;;;;;20.68;28.41;101483.25;105423;1299;67734;-87
2023/10/10 20:19:23;;;;;;;;;;;;;;;20.67;28.46;101481.59;105415;1300;67864;-87
2023/10/10 20:21:48;;;;;;;;;;;;;;;20.68;28.32;101486.30;105391;1300;68481;-87
2023/10/10 20:24:14;;;;;;;;;;;;;;;20.67;28.28;101490.02;105448;1303;67759;-87
2023/10/10 20:26:40;;;;;;;;;;;;;;;20.66;28.35;101490.94;105362;1300;75703;-86
2023/10/10 20:29:09;;;;;;;;;;;;;;;20.66;28.25;101493.59;105411;1299;67840;-86
2023/10/10 20:31:34;;;;;;;;;;;;;;;20.66;28.37;101492.25;105396;1300;73592;-87
2023/10/10 20:34:00;;;;;;;;;;;;;;;20.66;28.31;101490.73;105426;1300;67876;-87
2023/10/10 20:36:25;;;;;;;;;;;;;;;20.66;28.29;101493.63;105414;1300;67983;-87
2023/10/10 20:38:52;;;;;;;;;;;;;;;20.65;28.25;101495.61;105394;1301;67853;-87
2023/10/10 20:41:19;;;;;;;;;;;;;;;20.65;28.15;101502.98;105435;1299;67799;-88
2023/10/10 20:43:44;;;;;;;;;;;;;;;20.64;28.04;101502.14;105390;1300;67050;-87
2023/10/10 20:46:17;;;;;;;;;;;;;;;20.64;28.20;101502.70;105490;1299;68330;-87
2023/10/10 20:48:44;;;;;;;;;;;;;;;20.64;28.19;101505.14;105459;1299;73817;-87
2023/10/10 20:51:11;;;;;;;;;;;;;;;20.63;28.19;101504.37;105420;1300;83732;-86
2023/10/10 20:53:36;;;;;;;;;;;;;;;20.63;28.04;101506.05;105427;1300;67704;-87
2023/10/10 20:56:02;;;;;;;;;;;;;;;20.63;28.13;101506.25;105411;1300;67977;-87
2023/10/10 20:58:28;;;;;;;;;;;;;;;20.63;28.05;101512.44;105496;1299;67816;-86
2023/10/10 21:00:55;;;;;;;;;;;;;;;20.62;28.06;101514.31;105465;1300;67877;-87
2023/10/10 21:03:22;;;;;;;;;;;;;;;20.62;28.04;101519.33;105455;1300;67936;-86
2023/10/10 21:05:49;;;;;;;;;;;;;;;20.61;28.07;101519.58;105407;1300;67611;-86
2023/10/10 21:08:17;;;;;;;;;;;;;;;20.61;27.96;101519.92;105432;1299;67759;-92
2023/10/10 21:10:42;;;;;;;;;;;;;;;20.60;28.02;101522.66;105466;1299;67078;-87
2023/10/10 21:13:07;;;;;;;;;;;;;;;20.61;28.02;101524.92;105480;1299;67720;-86
2023/10/10 21:15:33;;;;;;;;;;;;;;;20.60;27.89;101525.94;105449;1299;67781;-86
2023/10/10 21:17:58;;;;;;;;;;;;;;;20.60;28.10;101531.20;105475;1300;67947;-86
2023/10/10 21:20:33;;;;;;;;;;;;;;;20.59;27.95;101528.53;105456;1299;67656;-87
2023/10/10 21:25:35;;;;;;;;;;;;;;;20.58;28.00;101528.33;105577;1296;81669;-86
2023/10/10 21:28:00;;;;;;;;;;;;;;;20.58;27.92;101532.61;105577;1297;68883;-87
2023/10/10 21:30:29;;;;;;;;;;;;;;;20.57;27.73;101537.14;105520;1297;67879;-86
2023/10/10 21:32:55;;;;;;;;;;;;;;;20.57;27.98;101540.52;105503;1297;67909;-86
2023/10/10 21:35:20;;;;;;;;;;;;;;;20.57;27.86;101535.96;105655;1296;67948;-87
2023/10/10 21:37:49;;;;;;;;;;;;;;;20.57;27.79;101536.23;105485;1297;68483;-87
2023/10/10 21:40:20;;;;;;;;;;;;;;;20.56;27.83;101542.10;105592;1296;72006;-86
2023/10/10 21:42:55;;;;;;;;;;;;;;;20.56;27.75;101549.03;105617;1296;67763;-86
2023/10/10 21:45:21;;;;;;;;;;;;;;;20.55;27.85;101552.92;105580;1297;67680;-86
2023/10/10 21:47:47;;;;;;;;;;;;;;;20.55;27.79;101552.85;105829;1297;69025;-87
2023/10/10 21:50:13;;;;;;;;;;;;;;;20.55;27.78;101554.44;105888;1299;68276;-87
2023/10/10 21:52:38;;;;;;;;;;;;;;;20.54;27.65;101554.58;105461;1299;68627;-86
2023/10/10 21:55:08;;;;;;;;;;;;;;;20.54;27.92;101559.33;105486;1300;67844;-86
2023/10/10 21:57:35;;;;;;;;;;;;;;;20.54;27.81;101560.05;105501;1299;67807;-86
2023/10/10 22:00:04;;;;;;;;;;;;;;;20.54;27.76;101566.74;105481;1299;74549;-86
2023/10/10 22:02:29;;;;;;;;;;;;;;;20.53;27.77;101559.16;105454;1299;83157;-86
2023/10/10 22:05:03;;;;;;;;;;;;;;;20.53;27.73;101563.91;105462;1299;67801;-92
2023/10/10 22:07:30;;;;;;;;;;;;;;;20.52;27.64;101568.20;105556;1298;67849;-86
2023/10/10 22:09:55;;;;;;;;;;;;;;;20.52;27.65;101571.16;105883;1299;67846;-86
2023/10/10 22:12:22;;;;;;;;;;;;;;;20.51;27.74;101568.95;105897;1301;67029;-86
2023/10/10 22:14:48;;;;;;;;;;;;;;;20.51;27.69;101572.91;105889;1299;67634;-87
2023/10/10 22:17:13;;;;;;;;;;;;;;;20.50;27.68;101573.83;105824;1300;67911;-86
2023/10/10 22:19:40;;;;;;;;;;;;;;;20.50;27.61;101578.31;105428;1299;67702;-86
2023/10/10 22:22:05;;;;;;;;;;;;;;;20.50;27.59;101582.35;105586;1299;67857;-86
2023/10/10 22:24:31;;;;;;;;;;;;;;;20.49;27.44;101581.84;105540;1299;67925;-86
2023/10/10 22:26:57;;;;;;;;;;;;;;;20.49;27.57;101577.89;105473;1299;72587;-86
2023/10/10 22:29:22;;;;;;;;;;;;;;;20.49;27.41;101580.34;105503;1298;67957;-86
2023/10/10 22:32:04;;;;;;;;;;;;;;;20.48;27.57;101580.27;105473;1299;68110;-91
2023/10/10 22:34:29;;;;;;;;;;;;;;;20.48;27.61;101584.00;105559;1299;74762;-86
2023/10/10 22:36:57;;;;;;;;;;;;;;;20.47;27.62;101581.17;105449;1299;67901;-86
2023/10/10 22:39:25;;;;;;;;;;;;;;;20.47;27.50;101589.35;105456;1300;68639;-86
2023/10/10 22:41:50;;;;;;;;;;;;;;;20.46;27.46;101593.23;105445;1299;67380;-86
2023/10/10 22:44:16;;;;;;;;;;;;;;;20.46;27.53;101591.40;105449;1299;67645;-87
2023/10/10 22:49:24;;;;;;;;;;;;;;;20.45;27.57;101596.13;105574;1297;83346;-86
2023/10/10 22:51:50;;;;;;;;;;;;;;;20.45;27.63;101596.94;105615;1297;67800;-86
2023/10/10 22:54:16;;;;;;;;;;;;;;;20.44;27.52;101602.09;105628;1297;68149;-86
2023/10/10 22:56:41;;;;;;;;;;;;;;;20.43;27.39;101606.73;105553;1297;68173;-86
2023/10/10 22:59:07;;;;;;;;;;;;;;;20.43;27.53;101610.86;105667;1296;69114;-87
2023/10/10 23:01:33;;;;;;;;;;;;;;;20.43;27.42;101616.63;105575;1297;72439;-86
2023/10/10 23:03:58;;;;;;;;;;;;;;;20.42;27.36;101616.41;105616;1296;67909;-86
2023/10/10 23:06:24;;;;;;;;;;;;;;;20.41;27.42;101620.28;105636;1297;67122;-86
2023/10/10 23:08:49;;;;;;;;;;;;;;;20.41;27.48;101619.67;105533;1297;67794;-86
2023/10/10 23:11:16;;;;;;;;;;;;;;;20.41;27.46;101621.60;105556;1297;68422;-86
2023/10/10 23:13:52;;;;;;;;;;;;;;;20.41;27.39;101622.77;105574;1297;69413;-91
2023/10/10 23:16:17;;;;;;;;;;;;;;;20.40;27.44;101617.80;105573;1297;67958;-86
2023/10/10 23:18:43;;;;;;;;;;;;;;;20.40;27.43;101620.25;105586;1296;67876;-86
2023/10/10 23:21:08;;;;;;;;;;;;;;;20.39;27.34;101618.09;105586;1297;67821;-86
2023/10/10 23:23:35;;;;;;;;;;;;;;;20.38;27.33;101618.78;105611;1296;67863;-86
2023/10/10 23:26:03;;;;;;;;;;;;;;;20.37;27.30;101619.63;105524;1297;68981;-87
2023/10/10 23:28:29;;;;;;;;;;;;;;;20.37;27.45;101620.05;105574;1297;67865;-86
2023/10/10 23:30:56;;;;;;;;;;;;;;;20.37;27.32;101623.35;105596;1297;67792;-86
2023/10/10 23:33:22;;;;;;;;;;;;;;;20.36;27.44;101623.95;105586;1297;67977;-86
2023/10/10 23:35:50;;;;;;;;;;;;;;;20.35;27.39;101623.41;105547;1297;67838;-86
2023/10/10 23:38:15;;;;;;;;;;;;;;;20.35;27.34;101627.55;105436;1297;67711;-86
2023/10/10 23:40:44;;;;;;;;;;;;;;;20.35;27.27;101632.05;105565;1297;67216;-92
2023/10/10 23:43:11;;;;;;;;;;;;;;;20.34;27.37;101630.97;105638;1297;73517;-86
2023/10/10 23:45:42;;;;;;;;;;;;;;;20.34;27.35;101632.04;105613;1297;83506;-86
2023/10/10 23:48:09;;;;;;;;;;;;;;;20.33;27.38;101633.51;105533;1297;72372;-86
2023/10/10 23:50:40;;;;;;;;;;;;;;;20.33;27.29;101634.41;105596;1297;67181;-86